sensor_id;sensor_type;location;lat;lon;timestamp;temperature;humidity
79140;HTU21D;68546;59.142;37.948;2023-05-07T00:01:02;1.82;52.26
79140;HTU21D;68546;59.142;37.948;2023-05-07T00:03:28;1.82;52.31
79140;HTU21D;68546;59.142;37.948;2023-05-07T00:05:54;1.81;52.33
79140;HTU21D;68546;59.142;37.948;2023-05-07T00:08:21;1.82;52.42
79140;HTU21D;68546;59.142;37.948;2023-05-07T00:10:47;1.81;52.41
79140;HTU21D;68546;59.142;37.948;2023-05-07T00:13:14;1.80;52.42
79140;HTU21D;68546;59.142;37.948;2023-05-07T00:15:41;1.80;52.39
79140;HTU21D;68546;59.142;37.948;2023-05-07T00:18:07;1.78;52.50
79140;HTU21D;68546;59.142;37.948;2023-05-07T00:20:34;1.77;52.84
79140;HTU21D;68546;59.142;37.948;2023-05-07T00:23:00;1.77;52.94
79140;HTU21D;68546;59.142;37.948;2023-05-07T00:25:27;1.77;53.16
79140;HTU21D;68546;59.142;37.948;2023-05-07T00:27:53;1.77;53.55
79140;HTU21D;68546;59.142;37.948;2023-05-07T00:30:19;1.75;53.52
79140;HTU21D;68546;59.142;37.948;2023-05-07T00:32:46;1.72;53.85
79140;HTU21D;68546;59.142;37.948;2023-05-07T00:35:15;1.72;53.98
79140;HTU21D;68546;59.142;37.948;2023-05-07T00:37:44;1.71;53.99
79140;HTU21D;68546;59.142;37.948;2023-05-07T00:40:10;1.70;54.09
79140;HTU21D;68546;59.142;37.948;2023-05-07T00:42:37;1.67;54.48
79140;HTU21D;68546;59.142;37.948;2023-05-07T00:45:04;1.67;54.52
79140;HTU21D;68546;59.142;37.948;2023-05-07T00:47:31;1.65;54.70
79140;HTU21D;68546;59.142;37.948;2023-05-07T00:49:57;1.64;54.83
79140;HTU21D;68546;59.142;37.948;2023-05-07T00:52:25;1.64;54.98
79140;HTU21D;68546;59.142;37.948;2023-05-07T00:54:52;1.63;55.28
79140;HTU21D;68546;59.142;37.948;2023-05-07T00:57:20;1.63;55.49
79140;HTU21D;68546;59.142;37.948;2023-05-07T00:59:48;1.63;55.55
79140;HTU21D;68546;59.142;37.948;2023-05-07T01:02:14;1.62;55.58
79140;HTU21D;68546;59.142;37.948;2023-05-07T01:04:41;1.60;55.42
79140;HTU21D;68546;59.142;37.948;2023-05-07T01:07:07;1.60;55.54
79140;HTU21D;68546;59.142;37.948;2023-05-07T01:09:34;1.58;55.40
79140;HTU21D;68546;59.142;37.948;2023-05-07T01:12:03;1.56;55.65
79140;HTU21D;68546;59.142;37.948;2023-05-07T01:14:29;1.56;55.65
79140;HTU21D;68546;59.142;37.948;2023-05-07T01:16:56;1.56;56.13
79140;HTU21D;68546;59.142;37.948;2023-05-07T01:19:24;1.56;56.03
79140;HTU21D;68546;59.142;37.948;2023-05-07T01:21:53;1.54;56.36
79140;HTU21D;68546;59.142;37.948;2023-05-07T01:24:24;1.54;56.41
79140;HTU21D;68546;59.142;37.948;2023-05-07T01:26:50;1.54;56.93
79140;HTU21D;68546;59.142;37.948;2023-05-07T01:29:18;1.55;56.96
79140;HTU21D;68546;59.142;37.948;2023-05-07T01:31:46;1.53;56.97
79140;HTU21D;68546;59.142;37.948;2023-05-07T01:34:14;1.54;57.04
79140;HTU21D;68546;59.142;37.948;2023-05-07T01:36:43;1.54;57.65
79140;HTU21D;68546;59.142;37.948;2023-05-07T01:39:10;1.56;57.62
79140;HTU21D;68546;59.142;37.948;2023-05-07T01:41:37;1.56;57.45
79140;HTU21D;68546;59.142;37.948;2023-05-07T01:44:03;1.55;57.68
79140;HTU21D;68546;59.142;37.948;2023-05-07T01:46:31;1.56;57.90
79140;HTU21D;68546;59.142;37.948;2023-05-07T01:48:59;1.58;58.19
79140;HTU21D;68546;59.142;37.948;2023-05-07T01:51:25;1.61;58.29
79140;HTU21D;68546;59.142;37.948;2023-05-07T01:53:52;1.62;58.35
79140;HTU21D;68546;59.142;37.948;2023-05-07T01:56:20;1.65;58.32
79140;HTU21D;68546;59.142;37.948;2023-05-07T01:58:47;1.68;58.49
79140;HTU21D;68546;59.142;37.948;2023-05-07T02:01:14;1.72;58.62
79140;HTU21D;68546;59.142;37.948;2023-05-07T02:03:41;1.81;58.67
79140;HTU21D;68546;59.142;37.948;2023-05-07T02:06:14;1.92;59.16
79140;HTU21D;68546;59.142;37.948;2023-05-07T02:08:41;2.03;59.32
79140;HTU21D;68546;59.142;37.948;2023-05-07T02:11:08;2.14;59.42
79140;HTU21D;68546;59.142;37.948;2023-05-07T02:13:35;2.26;59.60
79140;HTU21D;68546;59.142;37.948;2023-05-07T02:16:03;2.43;59.90
79140;HTU21D;68546;59.142;37.948;2023-05-07T02:18:30;2.59;60.55
79140;HTU21D;68546;59.142;37.948;2023-05-07T02:20:56;2.73;60.76
79140;HTU21D;68546;59.142;37.948;2023-05-07T02:23:22;2.86;60.74
79140;HTU21D;68546;59.142;37.948;2023-05-07T02:25:49;2.94;60.88
79140;HTU21D;68546;59.142;37.948;2023-05-07T02:28:15;2.96;60.95
79140;HTU21D;68546;59.142;37.948;2023-05-07T02:30:50;2.98;61.15
79140;HTU21D;68546;59.142;37.948;2023-05-07T02:33:17;2.99;61.83
79140;HTU21D;68546;59.142;37.948;2023-05-07T02:35:43;2.98;62.23
79140;HTU21D;68546;59.142;37.948;2023-05-07T02:38:12;2.98;62.07
79140;HTU21D;68546;59.142;37.948;2023-05-07T02:40:39;3.12;62.31
79140;HTU21D;68546;59.142;37.948;2023-05-07T02:43:06;3.26;62.70
79140;HTU21D;68546;59.142;37.948;2023-05-07T02:45:33;3.41;62.44
79140;HTU21D;68546;59.142;37.948;2023-05-07T02:48:00;3.53;62.31
79140;HTU21D;68546;59.142;37.948;2023-05-07T02:50:27;3.64;62.05
79140;HTU21D;68546;59.142;37.948;2023-05-07T02:52:54;3.77;61.79
79140;HTU21D;68546;59.142;37.948;2023-05-07T02:55:21;3.90;61.49
79140;HTU21D;68546;59.142;37.948;2023-05-07T02:57:48;4.02;61.20
79140;HTU21D;68546;59.142;37.948;2023-05-07T03:00:17;4.13;60.78
79140;HTU21D;68546;59.142;37.948;2023-05-07T03:02:54;4.21;60.42
79140;HTU21D;68546;59.142;37.948;2023-05-07T03:05:23;4.31;60.26
79140;HTU21D;68546;59.142;37.948;2023-05-07T03:07:50;4.43;59.92
79140;HTU21D;68546;59.142;37.948;2023-05-07T03:10:16;4.53;59.70
79140;HTU21D;68546;59.142;37.948;2023-05-07T03:12:42;4.62;59.44
79140;HTU21D;68546;59.142;37.948;2023-05-07T03:15:11;4.75;59.36
79140;HTU21D;68546;59.142;37.948;2023-05-07T03:17:39;4.87;59.01
79140;HTU21D;68546;59.142;37.948;2023-05-07T03:20:05;5.02;58.73
79140;HTU21D;68546;59.142;37.948;2023-05-07T03:22:33;5.13;58.17
79140;HTU21D;68546;59.142;37.948;2023-05-07T03:24:59;5.21;57.89
79140;HTU21D;68546;59.142;37.948;2023-05-07T03:27:26;5.32;57.77
79140;HTU21D;68546;59.142;37.948;2023-05-07T03:29:53;5.46;57.37
79140;HTU21D;68546;59.142;37.948;2023-05-07T03:32:20;5.56;56.79
79140;HTU21D;68546;59.142;37.948;2023-05-07T03:34:46;5.63;55.79
79140;HTU21D;68546;59.142;37.948;2023-05-07T03:37:13;5.71;55.41
79140;HTU21D;68546;59.142;37.948;2023-05-07T03:39:40;5.76;55.01
79140;HTU21D;68546;59.142;37.948;2023-05-07T03:42:07;5.81;54.75
79140;HTU21D;68546;59.142;37.948;2023-05-07T03:44:33;5.84;54.93
79140;HTU21D;68546;59.142;37.948;2023-05-07T03:47:00;5.93;54.51
79140;HTU21D;68546;59.142;37.948;2023-05-07T03:49:26;5.98;54.03
79140;HTU21D;68546;59.142;37.948;2023-05-07T03:51:53;6.01;53.58
79140;HTU21D;68546;59.142;37.948;2023-05-07T03:54:20;6.09;53.97
79140;HTU21D;68546;59.142;37.948;2023-05-07T03:56:47;6.19;52.89
79140;HTU21D;68546;59.142;37.948;2023-05-07T03:59:13;6.24;52.81
79140;HTU21D;68546;59.142;37.948;2023-05-07T04:01:41;6.27;52.15
79140;HTU21D;68546;59.142;37.948;2023-05-07T04:04:07;6.29;51.36
79140;HTU21D;68546;59.142;37.948;2023-05-07T04:06:35;6.29;51.72
79140;HTU21D;68546;59.142;37.948;2023-05-07T04:09:02;6.35;51.44
79140;HTU21D;68546;59.142;37.948;2023-05-07T04:11:30;6.37;51.12
79140;HTU21D;68546;59.142;37.948;2023-05-07T04:13:56;6.40;51.05
79140;HTU21D;68546;59.142;37.948;2023-05-07T04:16:23;6.41;51.30
79140;HTU21D;68546;59.142;37.948;2023-05-07T04:18:50;6.46;50.58
79140;HTU21D;68546;59.142;37.948;2023-05-07T04:21:18;6.46;50.25
79140;HTU21D;68546;59.142;37.948;2023-05-07T04:23:49;6.48;50.15
79140;HTU21D;68546;59.142;37.948;2023-05-07T04:26:15;6.46;50.36
79140;HTU21D;68546;59.142;37.948;2023-05-07T04:28:44;6.50;50.03
79140;HTU21D;68546;59.142;37.948;2023-05-07T04:31:11;6.50;49.47
79140;HTU21D;68546;59.142;37.948;2023-05-07T04:33:38;6.49;49.90
79140;HTU21D;68546;59.142;37.948;2023-05-07T04:36:07;6.53;50.13
79140;HTU21D;68546;59.142;37.948;2023-05-07T04:38:39;6.60;49.78
79140;HTU21D;68546;59.142;37.948;2023-05-07T04:41:08;6.61;49.25
79140;HTU21D;68546;59.142;37.948;2023-05-07T04:43:38;6.63;49.16
79140;HTU21D;68546;59.142;37.948;2023-05-07T04:46:05;6.63;49.27
79140;HTU21D;68546;59.142;37.948;2023-05-07T04:48:31;6.64;49.36
79140;HTU21D;68546;59.142;37.948;2023-05-07T04:50:59;6.68;49.39
79140;HTU21D;68546;59.142;37.948;2023-05-07T04:53:26;6.71;48.99
79140;HTU21D;68546;59.142;37.948;2023-05-07T04:55:57;6.73;48.60
79140;HTU21D;68546;59.142;37.948;2023-05-07T04:58:26;6.74;47.99
79140;HTU21D;68546;59.142;37.948;2023-05-07T05:00:53;6.74;47.99
79140;HTU21D;68546;59.142;37.948;2023-05-07T05:03:19;6.73;48.54
79140;HTU21D;68546;59.142;37.948;2023-05-07T05:05:46;6.74;48.31
79140;HTU21D;68546;59.142;37.948;2023-05-07T05:08:15;6.76;48.50
79140;HTU21D;68546;59.142;37.948;2023-05-07T05:10:42;6.75;47.37
79140;HTU21D;68546;59.142;37.948;2023-05-07T05:13:10;6.73;46.99
79140;HTU21D;68546;59.142;37.948;2023-05-07T05:15:38;6.70;46.60
79140;HTU21D;68546;59.142;37.948;2023-05-07T05:18:05;6.67;46.76
79140;HTU21D;68546;59.142;37.948;2023-05-07T05:20:34;6.65;46.54
79140;HTU21D;68546;59.142;37.948;2023-05-07T05:23:32;6.65;46.73
79140;HTU21D;68546;59.142;37.948;2023-05-07T05:25:59;6.65;46.82
79140;HTU21D;68546;59.142;37.948;2023-05-07T05:28:28;6.67;46.62
79140;HTU21D;68546;59.142;37.948;2023-05-07T05:30:55;6.69;46.04
79140;HTU21D;68546;59.142;37.948;2023-05-07T05:33:23;6.70;45.91
79140;HTU21D;68546;59.142;37.948;2023-05-07T05:35:50;6.72;45.25
79140;HTU21D;68546;59.142;37.948;2023-05-07T05:38:17;6.73;45.39
79140;HTU21D;68546;59.142;37.948;2023-05-07T05:40:43;6.74;45.47
79140;HTU21D;68546;59.142;37.948;2023-05-07T05:43:10;6.79;45.85
79140;HTU21D;68546;59.142;37.948;2023-05-07T05:45:37;6.87;45.93
79140;HTU21D;68546;59.142;37.948;2023-05-07T05:48:04;6.96;45.69
79140;HTU21D;68546;59.142;37.948;2023-05-07T05:50:31;7.02;44.68
79140;HTU21D;68546;59.142;37.948;2023-05-07T05:53:07;7.12;44.17
79140;HTU21D;68546;59.142;37.948;2023-05-07T05:55:34;7.17;44.54
79140;HTU21D;68546;59.142;37.948;2023-05-07T05:58:01;7.26;44.70
79140;HTU21D;68546;59.142;37.948;2023-05-07T06:00:29;7.35;44.16
79140;HTU21D;68546;59.142;37.948;2023-05-07T06:03:01;7.49;44.72
79140;HTU21D;68546;59.142;37.948;2023-05-07T06:05:27;7.63;43.68
79140;HTU21D;68546;59.142;37.948;2023-05-07T06:07:56;7.75;43.19
79140;HTU21D;68546;59.142;37.948;2023-05-07T06:10:22;7.83;42.22
79140;HTU21D;68546;59.142;37.948;2023-05-07T06:12:48;7.87;41.42
79140;HTU21D;68546;59.142;37.948;2023-05-07T06:15:15;7.87;41.71
79140;HTU21D;68546;59.142;37.948;2023-05-07T06:17:43;7.88;42.26
79140;HTU21D;68546;59.142;37.948;2023-05-07T06:20:10;7.90;41.52
79140;HTU21D;68546;59.142;37.948;2023-05-07T06:22:38;7.93;41.97
79140;HTU21D;68546;59.142;37.948;2023-05-07T06:25:05;8.03;41.94
79140;HTU21D;68546;59.142;37.948;2023-05-07T06:27:32;8.13;40.68
79140;HTU21D;68546;59.142;37.948;2023-05-07T06:29:59;8.24;41.42
79140;HTU21D;68546;59.142;37.948;2023-05-07T06:32:26;8.37;41.15
79140;HTU21D;68546;59.142;37.948;2023-05-07T06:34:52;8.48;39.23
79140;HTU21D;68546;59.142;37.948;2023-05-07T06:37:19;8.52;38.95
79140;HTU21D;68546;59.142;37.948;2023-05-07T06:40:01;8.57;39.16
79140;HTU21D;68546;59.142;37.948;2023-05-07T06:42:31;8.59;39.60
79140;HTU21D;68546;59.142;37.948;2023-05-07T06:45:07;8.67;38.03
79140;HTU21D;68546;59.142;37.948;2023-05-07T06:47:35;8.67;37.38
79140;HTU21D;68546;59.142;37.948;2023-05-07T06:50:01;8.68;37.87
79140;HTU21D;68546;59.142;37.948;2023-05-07T06:52:31;8.72;37.77
79140;HTU21D;68546;59.142;37.948;2023-05-07T06:55:00;8.73;38.38
79140;HTU21D;68546;59.142;37.948;2023-05-07T06:57:27;8.75;38.58
79140;HTU21D;68546;59.142;37.948;2023-05-07T06:59:54;8.78;38.15
79140;HTU21D;68546;59.142;37.948;2023-05-07T07:02:21;8.82;38.14
79140;HTU21D;68546;59.142;37.948;2023-05-07T07:04:49;8.83;37.53
79140;HTU21D;68546;59.142;37.948;2023-05-07T07:07:15;8.81;37.31
79140;HTU21D;68546;59.142;37.948;2023-05-07T07:09:45;8.76;37.12
79140;HTU21D;68546;59.142;37.948;2023-05-07T07:12:13;8.77;37.11
79140;HTU21D;68546;59.142;37.948;2023-05-07T07:14:42;8.76;37.34
79140;HTU21D;68546;59.142;37.948;2023-05-07T07:17:09;8.82;37.51
79140;HTU21D;68546;59.142;37.948;2023-05-07T07:19:36;8.90;37.01
79140;HTU21D;68546;59.142;37.948;2023-05-07T07:22:04;9.00;37.66
79140;HTU21D;68546;59.142;37.948;2023-05-07T07:24:31;9.04;37.17
79140;HTU21D;68546;59.142;37.948;2023-05-07T07:27:01;9.04;36.77
79140;HTU21D;68546;59.142;37.948;2023-05-07T07:29:28;9.00;36.79
79140;HTU21D;68546;59.142;37.948;2023-05-07T07:31:55;8.98;37.33
79140;HTU21D;68546;59.142;37.948;2023-05-07T07:34:23;9.00;37.67
79140;HTU21D;68546;59.142;37.948;2023-05-07T07:36:50;9.07;38.00
79140;HTU21D;68546;59.142;37.948;2023-05-07T07:39:18;9.17;37.72
79140;HTU21D;68546;59.142;37.948;2023-05-07T07:41:47;9.21;37.21
79140;HTU21D;68546;59.142;37.948;2023-05-07T07:44:15;9.24;36.99
79140;HTU21D;68546;59.142;37.948;2023-05-07T07:46:42;9.29;37.01
79140;HTU21D;68546;59.142;37.948;2023-05-07T07:49:08;9.33;36.33
79140;HTU21D;68546;59.142;37.948;2023-05-07T07:51:35;9.31;35.43
79140;HTU21D;68546;59.142;37.948;2023-05-07T07:54:02;9.30;35.69
79140;HTU21D;68546;59.142;37.948;2023-05-07T07:56:32;9.27;34.97
79140;HTU21D;68546;59.142;37.948;2023-05-07T07:59:00;9.30;34.81
79140;HTU21D;68546;59.142;37.948;2023-05-07T08:01:30;9.37;34.92
79140;HTU21D;68546;59.142;37.948;2023-05-07T08:03:59;9.40;35.08
79140;HTU21D;68546;59.142;37.948;2023-05-07T08:06:27;9.48;35.50
79140;HTU21D;68546;59.142;37.948;2023-05-07T08:08:55;9.54;34.24
79140;HTU21D;68546;59.142;37.948;2023-05-07T08:11:22;9.59;33.86
79140;HTU21D;68546;59.142;37.948;2023-05-07T08:13:50;9.63;33.89
79140;HTU21D;68546;59.142;37.948;2023-05-07T08:16:16;9.65;33.02
79140;HTU21D;68546;59.142;37.948;2023-05-07T08:18:43;9.59;33.18
79140;HTU21D;68546;59.142;37.948;2023-05-07T08:21:10;9.50;33.61
79140;HTU21D;68546;59.142;37.948;2023-05-07T08:23:36;9.47;34.28
79140;HTU21D;68546;59.142;37.948;2023-05-07T08:26:04;9.52;34.00
79140;HTU21D;68546;59.142;37.948;2023-05-07T08:28:30;9.53;34.00
79140;HTU21D;68546;59.142;37.948;2023-05-07T08:30:57;9.59;34.67
79140;HTU21D;68546;59.142;37.948;2023-05-07T08:33:28;9.72;32.91
79140;HTU21D;68546;59.142;37.948;2023-05-07T08:35:55;9.83;32.62
79140;HTU21D;68546;59.142;37.948;2023-05-07T08:38:22;9.90;32.79
79140;HTU21D;68546;59.142;37.948;2023-05-07T08:40:49;9.93;33.12
79140;HTU21D;68546;59.142;37.948;2023-05-07T08:43:19;9.99;33.02
79140;HTU21D;68546;59.142;37.948;2023-05-07T08:45:49;10.08;31.77
79140;HTU21D;68546;59.142;37.948;2023-05-07T08:48:22;10.09;31.15
79140;HTU21D;68546;59.142;37.948;2023-05-07T08:50:58;10.08;31.41
79140;HTU21D;68546;59.142;37.948;2023-05-07T08:53:26;10.07;31.69
79140;HTU21D;68546;59.142;37.948;2023-05-07T08:55:53;10.08;32.06
79140;HTU21D;68546;59.142;37.948;2023-05-07T08:58:20;10.04;32.12
79140;HTU21D;68546;59.142;37.948;2023-05-07T09:00:47;10.00;32.83
79140;HTU21D;68546;59.142;37.948;2023-05-07T09:03:13;10.01;33.44
79140;HTU21D;68546;59.142;37.948;2023-05-07T09:05:43;10.08;33.61
79140;HTU21D;68546;59.142;37.948;2023-05-07T09:08:15;10.18;33.42
79140;HTU21D;68546;59.142;37.948;2023-05-07T09:10:42;10.24;32.02
79140;HTU21D;68546;59.142;37.948;2023-05-07T09:13:11;10.26;31.80
79140;HTU21D;68546;59.142;37.948;2023-05-07T09:15:40;10.24;31.37
79140;HTU21D;68546;59.142;37.948;2023-05-07T09:18:08;10.20;29.43
79140;HTU21D;68546;59.142;37.948;2023-05-07T09:20:38;10.15;28.77
79140;HTU21D;68546;59.142;37.948;2023-05-07T09:23:07;10.15;28.62
79140;HTU21D;68546;59.142;37.948;2023-05-07T09:25:35;10.18;29.18
79140;HTU21D;68546;59.142;37.948;2023-05-07T09:28:10;10.24;29.05
79140;HTU21D;68546;59.142;37.948;2023-05-07T09:30:37;10.30;29.45
79140;HTU21D;68546;59.142;37.948;2023-05-07T09:33:06;10.37;29.57
79140;HTU21D;68546;59.142;37.948;2023-05-07T09:35:37;10.45;28.90
79140;HTU21D;68546;59.142;37.948;2023-05-07T09:38:08;10.52;28.01
79140;HTU21D;68546;59.142;37.948;2023-05-07T09:40:36;10.53;27.54
79140;HTU21D;68546;59.142;37.948;2023-05-07T09:43:11;10.53;28.15
79140;HTU21D;68546;59.142;37.948;2023-05-07T09:45:42;10.51;28.01
79140;HTU21D;68546;59.142;37.948;2023-05-07T09:48:10;10.49;28.61
79140;HTU21D;68546;59.142;37.948;2023-05-07T09:50:47;10.46;28.26
79140;HTU21D;68546;59.142;37.948;2023-05-07T09:53:17;10.49;28.90
79140;HTU21D;68546;59.142;37.948;2023-05-07T09:55:46;10.55;29.41
79140;HTU21D;68546;59.142;37.948;2023-05-07T09:58:14;10.65;29.45
79140;HTU21D;68546;59.142;37.948;2023-05-07T10:00:43;10.71;28.03
79140;HTU21D;68546;59.142;37.948;2023-05-07T10:03:14;10.72;27.87
79140;HTU21D;68546;59.142;37.948;2023-05-07T10:05:51;10.75;27.13
79140;HTU21D;68546;59.142;37.948;2023-05-07T10:08:20;10.81;27.13
79140;HTU21D;68546;59.142;37.948;2023-05-07T10:10:49;10.85;26.26
79140;HTU21D;68546;59.142;37.948;2023-05-07T10:13:23;10.86;26.78
79140;HTU21D;68546;59.142;37.948;2023-05-07T10:15:53;10.88;27.26
79140;HTU21D;68546;59.142;37.948;2023-05-07T10:18:22;10.92;26.86
79140;HTU21D;68546;59.142;37.948;2023-05-07T10:20:51;10.93;26.34
79140;HTU21D;68546;59.142;37.948;2023-05-07T10:23:23;10.89;25.77
79140;HTU21D;68546;59.142;37.948;2023-05-07T10:25:55;10.80;26.00
79140;HTU21D;68546;59.142;37.948;2023-05-07T10:28:23;10.77;26.11
79140;HTU21D;68546;59.142;37.948;2023-05-07T10:31:04;10.74;25.52
79140;HTU21D;68546;59.142;37.948;2023-05-07T10:33:40;10.77;26.26
79140;HTU21D;68546;59.142;37.948;2023-05-07T10:36:08;10.84;26.59
79140;HTU21D;68546;59.142;37.948;2023-05-07T10:38:34;10.94;26.49
79140;HTU21D;68546;59.142;37.948;2023-05-07T10:41:02;11.05;25.53
79140;HTU21D;68546;59.142;37.948;2023-05-07T10:43:45;11.16;25.26
79140;HTU21D;68546;59.142;37.948;2023-05-07T10:46:21;11.22;24.96
79140;HTU21D;68546;59.142;37.948;2023-05-07T10:51:42;11.22;24.65
79140;HTU21D;68546;59.142;37.948;2023-05-07T10:54:23;11.19;23.90
79140;HTU21D;68546;59.142;37.948;2023-05-07T10:59:58;11.15;23.53
79140;HTU21D;68546;59.142;37.948;2023-05-07T11:05:34;11.31;23.12
79140;HTU21D;68546;59.142;37.948;2023-05-07T11:08:12;11.34;23.19
79140;HTU21D;68546;59.142;37.948;2023-05-07T11:10:59;11.42;23.34
79140;HTU21D;68546;59.142;37.948;2023-05-07T11:13:49;11.49;23.14
79140;HTU21D;68546;59.142;37.948;2023-05-07T11:16:29;11.55;23.54
79140;HTU21D;68546;59.142;37.948;2023-05-07T11:19:08;11.58;22.34
79140;HTU21D;68546;59.142;37.948;2023-05-07T11:21:42;11.57;22.27
79140;HTU21D;68546;59.142;37.948;2023-05-07T11:24:22;11.55;21.42
79140;HTU21D;68546;59.142;37.948;2023-05-07T11:26:54;11.48;22.16
79140;HTU21D;68546;59.142;37.948;2023-05-07T11:29:23;11.44;22.51
79140;HTU21D;68546;59.142;37.948;2023-05-07T11:31:55;11.41;22.43
79140;HTU21D;68546;59.142;37.948;2023-05-07T11:34:25;11.38;21.44
79140;HTU21D;68546;59.142;37.948;2023-05-07T11:36:55;11.31;21.64
79140;HTU21D;68546;59.142;37.948;2023-05-07T11:39:32;11.29;21.63
79140;HTU21D;68546;59.142;37.948;2023-05-07T11:42:00;11.29;21.39
79140;HTU21D;68546;59.142;37.948;2023-05-07T11:44:45;11.31;21.92
79140;HTU21D;68546;59.142;37.948;2023-05-07T11:47:22;11.36;22.18
79140;HTU21D;68546;59.142;37.948;2023-05-07T11:49:50;11.38;22.33
79140;HTU21D;68546;59.142;37.948;2023-05-07T11:52:18;11.38;22.37
79140;HTU21D;68546;59.142;37.948;2023-05-07T11:54:55;11.36;22.45
79140;HTU21D;68546;59.142;37.948;2023-05-07T11:57:23;11.32;21.40
79140;HTU21D;68546;59.142;37.948;2023-05-07T11:59:56;11.27;21.69
79140;HTU21D;68546;59.142;37.948;2023-05-07T12:02:23;11.24;21.84
79140;HTU21D;68546;59.142;37.948;2023-05-07T12:04:51;11.20;22.17
79140;HTU21D;68546;59.142;37.948;2023-05-07T12:07:18;11.23;22.49
79140;HTU21D;68546;59.142;37.948;2023-05-07T12:09:45;11.28;22.25
79140;HTU21D;68546;59.142;37.948;2023-05-07T12:12:12;11.32;22.57
79140;HTU21D;68546;59.142;37.948;2023-05-07T12:14:41;11.38;22.89
79140;HTU21D;68546;59.142;37.948;2023-05-07T12:17:08;11.45;22.62
79140;HTU21D;68546;59.142;37.948;2023-05-07T12:19:36;11.52;22.74
79140;HTU21D;68546;59.142;37.948;2023-05-07T12:22:03;11.59;23.07
79140;HTU21D;68546;59.142;37.948;2023-05-07T12:24:45;11.63;22.87
79140;HTU21D;68546;59.142;37.948;2023-05-07T12:27:12;11.62;22.65
79140;HTU21D;68546;59.142;37.948;2023-05-07T12:29:38;11.63;22.77
79140;HTU21D;68546;59.142;37.948;2023-05-07T12:32:06;11.66;22.63
79140;HTU21D;68546;59.142;37.948;2023-05-07T12:34:39;11.66;22.37
79140;HTU21D;68546;59.142;37.948;2023-05-07T12:37:05;11.64;20.99
79140;HTU21D;68546;59.142;37.948;2023-05-07T12:39:32;11.64;21.27
79140;HTU21D;68546;59.142;37.948;2023-05-07T12:41:59;11.67;21.70
79140;HTU21D;68546;59.142;37.948;2023-05-07T12:44:30;11.72;21.60
79140;HTU21D;68546;59.142;37.948;2023-05-07T12:46:57;11.77;21.46
79140;HTU21D;68546;59.142;37.948;2023-05-07T12:49:24;11.83;21.73
79140;HTU21D;68546;59.142;37.948;2023-05-07T12:51:51;11.88;21.82
79140;HTU21D;68546;59.142;37.948;2023-05-07T12:54:31;11.92;22.09
79140;HTU21D;68546;59.142;37.948;2023-05-07T12:57:05;11.96;21.40
79140;HTU21D;68546;59.142;37.948;2023-05-07T13:01:58;11.89;21.34
79140;HTU21D;68546;59.142;37.948;2023-05-07T13:04:28;11.83;21.02
79140;HTU21D;68546;59.142;37.948;2023-05-07T13:06:55;11.73;21.34
79140;HTU21D;68546;59.142;37.948;2023-05-07T13:09:21;11.69;21.85
79140;HTU21D;68546;59.142;37.948;2023-05-07T13:11:48;11.69;22.09
79140;HTU21D;68546;59.142;37.948;2023-05-07T13:14:15;11.71;22.21
79140;HTU21D;68546;59.142;37.948;2023-05-07T13:16:41;11.73;22.12
79140;HTU21D;68546;59.142;37.948;2023-05-07T13:19:07;11.77;22.01
79140;HTU21D;68546;59.142;37.948;2023-05-07T13:21:34;11.82;21.96
79140;HTU21D;68546;59.142;37.948;2023-05-07T13:24:00;11.85;21.76
79140;HTU21D;68546;59.142;37.948;2023-05-07T13:26:26;11.85;21.80
79140;HTU21D;68546;59.142;37.948;2023-05-07T13:28:55;11.85;21.95
79140;HTU21D;68546;59.142;37.948;2023-05-07T13:31:22;11.89;22.12
79140;HTU21D;68546;59.142;37.948;2023-05-07T13:33:49;11.90;22.06
79140;HTU21D;68546;59.142;37.948;2023-05-07T13:36:15;11.91;22.18
79140;HTU21D;68546;59.142;37.948;2023-05-07T13:38:41;11.91;22.26
79140;HTU21D;68546;59.142;37.948;2023-05-07T13:41:08;11.88;22.24
79140;HTU21D;68546;59.142;37.948;2023-05-07T13:43:34;11.87;22.19
79140;HTU21D;68546;59.142;37.948;2023-05-07T13:46:01;11.85;22.10
79140;HTU21D;68546;59.142;37.948;2023-05-07T13:48:27;11.83;21.42
79140;HTU21D;68546;59.142;37.948;2023-05-07T13:50:54;11.79;21.44
79140;HTU21D;68546;59.142;37.948;2023-05-07T13:53:20;11.75;21.37
79140;HTU21D;68546;59.142;37.948;2023-05-07T13:55:47;11.73;21.38
79140;HTU21D;68546;59.142;37.948;2023-05-07T13:58:13;11.69;21.53
79140;HTU21D;68546;59.142;37.948;2023-05-07T14:00:40;11.68;21.68
79140;HTU21D;68546;59.142;37.948;2023-05-07T14:03:06;11.67;21.70
79140;HTU21D;68546;59.142;37.948;2023-05-07T14:05:33;11.66;20.98
79140;HTU21D;68546;59.142;37.948;2023-05-07T14:07:59;11.63;20.75
79140;HTU21D;68546;59.142;37.948;2023-05-07T14:10:25;11.58;20.73
79140;HTU21D;68546;59.142;37.948;2023-05-07T14:12:52;11.56;21.18
79140;HTU21D;68546;59.142;37.948;2023-05-07T14:15:21;11.53;21.46
79140;HTU21D;68546;59.142;37.948;2023-05-07T14:17:47;11.52;21.72
79140;HTU21D;68546;59.142;37.948;2023-05-07T14:20:14;11.53;21.85
79140;HTU21D;68546;59.142;37.948;2023-05-07T14:22:40;11.51;21.69
79140;HTU21D;68546;59.142;37.948;2023-05-07T14:25:07;11.48;21.83
79140;HTU21D;68546;59.142;37.948;2023-05-07T14:27:35;11.46;21.90
79140;HTU21D;68546;59.142;37.948;2023-05-07T14:30:01;11.43;22.04
79140;HTU21D;68546;59.142;37.948;2023-05-07T14:32:30;11.42;22.14
79140;HTU21D;68546;59.142;37.948;2023-05-07T14:34:56;11.41;22.19
79140;HTU21D;68546;59.142;37.948;2023-05-07T14:37:23;11.40;22.34
79140;HTU21D;68546;59.142;37.948;2023-05-07T14:39:50;11.40;21.91
79140;HTU21D;68546;59.142;37.948;2023-05-07T14:42:17;11.39;21.60
79140;HTU21D;68546;59.142;37.948;2023-05-07T14:44:43;11.34;21.65
79140;HTU21D;68546;59.142;37.948;2023-05-07T14:47:11;11.31;21.44
79140;HTU21D;68546;59.142;37.948;2023-05-07T14:49:38;11.29;21.38
79140;HTU21D;68546;59.142;37.948;2023-05-07T14:52:04;11.24;21.47
79140;HTU21D;68546;59.142;37.948;2023-05-07T14:54:34;11.19;21.71
79140;HTU21D;68546;59.142;37.948;2023-05-07T14:57:01;11.18;21.92
79140;HTU21D;68546;59.142;37.948;2023-05-07T14:59:28;11.17;21.96
79140;HTU21D;68546;59.142;37.948;2023-05-07T15:01:54;11.14;22.10
79140;HTU21D;68546;59.142;37.948;2023-05-07T15:04:21;11.12;22.42
79140;HTU21D;68546;59.142;37.948;2023-05-07T15:06:47;11.12;22.72
79140;HTU21D;68546;59.142;37.948;2023-05-07T15:09:13;11.11;23.29
79140;HTU21D;68546;59.142;37.948;2023-05-07T15:11:41;11.07;23.95
79140;HTU21D;68546;59.142;37.948;2023-05-07T15:14:07;11.01;24.75
79140;HTU21D;68546;59.142;37.948;2023-05-07T15:16:34;10.98;25.80
79140;HTU21D;68546;59.142;37.948;2023-05-07T15:19:00;10.90;26.73
79140;HTU21D;68546;59.142;37.948;2023-05-07T15:21:27;10.84;27.35
79140;HTU21D;68546;59.142;37.948;2023-05-07T15:23:53;10.77;27.71
79140;HTU21D;68546;59.142;37.948;2023-05-07T15:26:19;10.72;27.74
79140;HTU21D;68546;59.142;37.948;2023-05-07T15:28:46;10.70;27.95